sensor_id;sensor_type;location;lat;lon;timestamp;pressure;altitude;pressure_sealevel;temperature;humidity
4745;BME280;2386;42.138;24.746;2023-05-21T00:00:35;99354.78;;;18.52;100.00
4745;BME280;2386;42.138;24.746;2023-05-21T00:03:01;99356.00;;;18.41;100.00
4745;BME280;2386;42.138;24.746;2023-05-21T00:05:26;99343.41;;;18.34;100.00
4745;BME280;2386;42.138;24.746;2023-05-21T00:07:51;99345.19;;;18.49;100.00
4745;BME280;2386;42.138;24.746;2023-05-21T00:10:19;99337.00;;;18.44;100.00
4745;BME280;2386;42.138;24.746;2023-05-21T00:12:45;99333.72;;;18.42;100.00
4745;BME280;2386;42.138;24.746;2023-05-21T00:15:11;99331.63;;;18.34;100.00
4745;BME280;2386;42.138;24.746;2023-05-21T00:17:36;99329.41;;;18.36;100.00
4745;BME280;2386;42.138;24.746;2023-05-21T00:20:03;99328.81;;;18.39;100.00
4745;BME280;2386;42.138;24.746;2023-05-21T00:22:32;99324.81;;;18.26;100.00
4745;BME280;2386;42.138;24.746;2023-05-21T00:25:00;99325.06;;;18.30;100.00
4745;BME280;2386;42.138;24.746;2023-05-21T00:27:25;99326.38;;;18.37;100.00
4745;BME280;2386;42.138;24.746;2023-05-21T00:29:51;99323.72;;;18.27;100.00
4745;BME280;2386;42.138;24.746;2023-05-21T00:32:16;99324.97;;;18.40;100.00
4745;BME280;2386;42.138;24.746;2023-05-21T00:34:41;99318.91;;;18.43;100.00
4745;BME280;2386;42.138;24.746;2023-05-21T00:37:07;99307.09;;;18.43;100.00
4745;BME280;2386;42.138;24.746;2023-05-21T00:39:34;99310.91;;;18.47;100.00
4745;BME280;2386;42.138;24.746;2023-05-21T00:41:59;99315.16;;;18.58;100.00
4745;BME280;2386;42.138;24.746;2023-05-21T00:44:24;99310.69;;;18.67;100.00
4745;BME280;2386;42.138;24.746;2023-05-21T00:46:51;99311.22;;;18.69;100.00
4745;BME280;2386;42.138;24.746;2023-05-21T00:49:21;99309.09;;;18.61;100.00
4745;BME280;2386;42.138;24.746;2023-05-21T00:51:48;99306.78;;;18.73;100.00
4745;BME280;2386;42.138;24.746;2023-05-21T00:54:13;99301.28;;;18.73;100.00
4745;BME280;2386;42.138;24.746;2023-05-21T00:56:39;99299.13;;;18.70;100.00
4745;BME280;2386;42.138;24.746;2023-05-21T00:59:05;99295.84;;;18.68;100.00
4745;BME280;2386;42.138;24.746;2023-05-21T01:01:31;99301.56;;;18.71;100.00
4745;BME280;2386;42.138;24.746;2023-05-21T01:04:01;99304.59;;;18.70;100.00
4745;BME280;2386;42.138;24.746;2023-05-21T01:06:26;99304.31;;;18.71;100.00
4745;BME280;2386;42.138;24.746;2023-05-21T01:08:53;99299.81;;;18.81;100.00
4745;BME280;2386;42.138;24.746;2023-05-21T01:11:27;99297.88;;;18.81;100.00
4745;BME280;2386;42.138;24.746;2023-05-21T01:13:56;99295.25;;;18.71;100.00
4745;BME280;2386;42.138;24.746;2023-05-21T01:16:21;99291.91;;;18.50;100.00
4745;BME280;2386;42.138;24.746;2023-05-21T01:18:47;99301.06;;;18.41;100.00
4745;BME280;2386;42.138;24.746;2023-05-21T01:21:13;99301.31;;;18.44;100.00
4745;BME280;2386;42.138;24.746;2023-05-21T01:23:41;99304.69;;;18.36;100.00
4745;BME280;2386;42.138;24.746;2023-05-21T01:26:06;99293.03;;;18.20;100.00
4745;BME280;2386;42.138;24.746;2023-05-21T01:28:32;99296.53;;;18.26;100.00
4745;BME280;2386;42.138;24.746;2023-05-21T01:31:02;99299.34;;;18.21;100.00
4745;BME280;2386;42.138;24.746;2023-05-21T01:33:37;99288.16;;;18.12;100.00
4745;BME280;2386;42.138;24.746;2023-05-21T01:36:12;99295.47;;;18.22;100.00
4745;BME280;2386;42.138;24.746;2023-05-21T01:38:44;99288.53;;;18.29;100.00
4745;BME280;2386;42.138;24.746;2023-05-21T01:41:16;99294.66;;;18.21;100.00
4745;BME280;2386;42.138;24.746;2023-05-21T01:43:44;99287.72;;;18.29;100.00
4745;BME280;2386;42.138;24.746;2023-05-21T01:46:13;99292.44;;;18.23;100.00
4745;BME280;2386;42.138;24.746;2023-05-21T01:48:42;99282.72;;;18.07;100.00
4745;BME280;2386;42.138;24.746;2023-05-21T01:51:08;99286.75;;;18.15;100.00
4745;BME280;2386;42.138;24.746;2023-05-21T01:53:33;99283.19;;;18.14;100.00
4745;BME280;2386;42.138;24.746;2023-05-21T01:55:59;99283.06;;;18.29;100.00
4745;BME280;2386;42.138;24.746;2023-05-21T01:58:26;99278.38;;;18.30;100.00
4745;BME280;2386;42.138;24.746;2023-05-21T02:00:52;99275.06;;;18.33;100.00
4745;BME280;2386;42.138;24.746;2023-05-21T02:03:18;99272.50;;;18.42;100.00
4745;BME280;2386;42.138;24.746;2023-05-21T02:05:44;99271.09;;;18.44;100.00
4745;BME280;2386;42.138;24.746;2023-05-21T02:08:11;99271.00;;;18.54;99.12
4745;BME280;2386;42.138;24.746;2023-05-21T02:10:37;99271.81;;;18.55;100.00
4745;BME280;2386;42.138;24.746;2023-05-21T02:13:02;99271.81;;;18.55;100.00
4745;BME280;2386;42.138;24.746;2023-05-21T02:15:27;99274.13;;;18.43;100.00
4745;BME280;2386;42.138;24.746;2023-05-21T02:17:53;99274.59;;;18.50;100.00
4745;BME280;2386;42.138;24.746;2023-05-21T02:20:20;99267.00;;;18.42;100.00
4745;BME280;2386;42.138;24.746;2023-05-21T02:22:47;99277.41;;;18.45;100.00
4745;BME280;2386;42.138;24.746;2023-05-21T02:25:14;99273.41;;;18.32;100.00
4745;BME280;2386;42.138;24.746;2023-05-21T02:27:40;99264.84;;;18.38;100.00
4745;BME280;2386;42.138;24.746;2023-05-21T02:30:08;99260.50;;;18.32;100.00
4745;BME280;2386;42.138;24.746;2023-05-21T02:32:34;99268.75;;;18.32;100.00
4745;BME280;2386;42.138;24.746;2023-05-21T02:35:01;99268.78;;;18.27;100.00
4745;BME280;2386;42.138;24.746;2023-05-21T02:37:28;99273.03;;;18.15;100.00
4745;BME280;2386;42.138;24.746;2023-05-21T02:39:58;99270.00;;;18.16;100.00
4745;BME280;2386;42.138;24.746;2023-05-21T02:42:23;99266.09;;;18.22;100.00
4745;BME280;2386;42.138;24.746;2023-05-21T02:44:50;99265.13;;;18.08;100.00
4745;BME280;2386;42.138;24.746;2023-05-21T02:47:17;99258.19;;;18.16;100.00
4745;BME280;2386;42.138;24.746;2023-05-21T02:49:42;99261.84;;;18.06;100.00
4745;BME280;2386;42.138;24.746;2023-05-21T02:52:08;99275.88;;;18.04;100.00
4745;BME280;2386;42.138;24.746;2023-05-21T02:54:33;99265.38;;;18.12;100.00
4745;BME280;2386;42.138;24.746;2023-05-21T02:56:58;99272.22;;;18.14;100.00
4745;BME280;2386;42.138;24.746;2023-05-21T02:59:24;99264.56;;;18.11;100.00
4745;BME280;2386;42.138;24.746;2023-05-21T03:01:49;99263.19;;;18.09;100.00
4745;BME280;2386;42.138;24.746;2023-05-21T03:04:14;99267.53;;;18.15;100.00
4745;BME280;2386;42.138;24.746;2023-05-21T03:06:41;99269.41;;;18.19;100.00
4745;BME280;2386;42.138;24.746;2023-05-21T03:09:07;99272.66;;;18.26;100.00
4745;BME280;2386;42.138;24.746;2023-05-21T03:11:32;99265.31;;;18.17;100.00
4745;BME280;2386;42.138;24.746;2023-05-21T03:13:58;99268.94;;;18.12;100.00
4745;BME280;2386;42.138;24.746;2023-05-21T03:16:23;99267.25;;;18.16;100.00
4745;BME280;2386;42.138;24.746;2023-05-21T03:18:48;99270.56;;;18.13;100.00
4745;BME280;2386;42.138;24.746;2023-05-21T03:21:14;99273.84;;;18.15;100.00
4745;BME280;2386;42.138;24.746;2023-05-21T03:23:42;99270.03;;;18.11;100.00
4745;BME280;2386;42.138;24.746;2023-05-21T03:26:08;99283.44;;;18.18;100.00
4745;BME280;2386;42.138;24.746;2023-05-21T03:28:34;99275.97;;;18.23;100.00
4745;BME280;2386;42.138;24.746;2023-05-21T03:30:59;99277.03;;;18.27;100.00
4745;BME280;2386;42.138;24.746;2023-05-21T03:33:25;99280.72;;;18.13;100.00
4745;BME280;2386;42.138;24.746;2023-05-21T03:35:50;99287.03;;;18.13;100.00
4745;BME280;2386;42.138;24.746;2023-05-21T03:38:16;99279.88;;;18.17;100.00
4745;BME280;2386;42.138;24.746;2023-05-21T03:40:41;99288.09;;;18.17;100.00
4745;BME280;2386;42.138;24.746;2023-05-21T03:43:07;99274.47;;;18.07;100.00
4745;BME280;2386;42.138;24.746;2023-05-21T03:45:32;99264.66;;;18.01;100.00
4745;BME280;2386;42.138;24.746;2023-05-21T03:47:57;99272.84;;;18.06;100.00
4745;BME280;2386;42.138;24.746;2023-05-21T03:50:23;99283.19;;;18.14;100.00
4745;BME280;2386;42.138;24.746;2023-05-21T03:52:48;99269.75;;;18.13;100.00
4745;BME280;2386;42.138;24.746;2023-05-21T03:55:14;99285.34;;;18.17;100.00
4745;BME280;2386;42.138;24.746;2023-05-21T03:57:40;99281.56;;;18.13;100.00
4745;BME280;2386;42.138;24.746;2023-05-21T04:00:06;99272.78;;;18.11;100.00
4745;BME280;2386;42.138;24.746;2023-05-21T04:02:33;99268.94;;;18.12;100.00
4745;BME280;2386;42.138;24.746;2023-05-21T04:04:58;99267.25;;;18.16;100.00
4745;BME280;2386;42.138;24.746;2023-05-21T04:07:23;99278.44;;;18.25;100.00
4745;BME280;2386;42.138;24.746;2023-05-21T04:09:49;99275.09;;;18.28;100.00
4745;BME280;2386;42.138;24.746;2023-05-21T04:12:14;99273.66;;;18.35;100.00
4745;BME280;2386;42.138;24.746;2023-05-21T04:14:42;99278.84;;;18.37;100.00
4745;BME280;2386;42.138;24.746;2023-05-21T04:17:07;99278.50;;;18.44;100.00
4745;BME280;2386;42.138;24.746;2023-05-21T04:19:33;99274.91;;;18.48;100.00
4745;BME280;2386;42.138;24.746;2023-05-21T04:21:58;99273.22;;;18.23;100.00
4745;BME280;2386;42.138;24.746;2023-05-21T04:24:24;99272.13;;;18.24;100.00
4745;BME280;2386;42.138;24.746;2023-05-21T04:26:49;99275.28;;;18.36;100.00
4745;BME280;2386;42.138;24.746;2023-05-21T04:29:15;99273.31;;;18.42;100.00
4745;BME280;2386;42.138;24.746;2023-05-21T04:31:42;99265.25;;;18.51;100.00
4745;BME280;2386;42.138;24.746;2023-05-21T04:34:08;99274.84;;;18.53;100.00
4745;BME280;2386;42.138;24.746;2023-05-21T04:36:34;99271.84;;;18.50;100.00
4745;BME280;2386;42.138;24.746;2023-05-21T04:39:00;99267.34;;;18.59;100.00
4745;BME280;2386;42.138;24.746;2023-05-21T04:41:26;99267.31;;;18.64;100.00
4745;BME280;2386;42.138;24.746;2023-05-21T04:43:52;99270.53;;;18.71;100.00
4745;BME280;2386;42.138;24.746;2023-05-21T04:46:20;99264.25;;;18.65;100.00
4745;BME280;2386;42.138;24.746;2023-05-21T04:48:53;99271.56;;;18.75;100.00
4745;BME280;2386;42.138;24.746;2023-05-21T04:51:22;99272.75;;;18.69;100.00
4745;BME280;2386;42.138;24.746;2023-05-21T04:53:51;99272.75;;;18.69;100.00
4745;BME280;2386;42.138;24.746;2023-05-21T04:56:18;99280.56;;;18.81;100.00
4745;BME280;2386;42.138;24.746;2023-05-21T04:58:47;99273.91;;;18.87;100.00
4745;BME280;2386;42.138;24.746;2023-05-21T05:01:16;99271.16;;;18.87;100.00
4745;BME280;2386;42.138;24.746;2023-05-21T05:03:44;99277.31;;;18.79;99.77
4745;BME280;2386;42.138;24.746;2023-05-21T05:06:09;99259.06;;;18.64;100.00
4745;BME280;2386;42.138;24.746;2023-05-21T05:08:35;99280.94;;;18.74;100.00
4745;BME280;2386;42.138;24.746;2023-05-21T05:11:00;99277.59;;;18.77;100.00
4745;BME280;2386;42.138;24.746;2023-05-21T05:13:26;99278.72;;;18.76;100.00
4745;BME280;2386;42.138;24.746;2023-05-21T05:15:52;99286.38;;;18.79;100.00
4745;BME280;2386;42.138;24.746;2023-05-21T05:18:18;99283.03;;;18.82;100.00
4745;BME280;2386;42.138;24.746;2023-05-21T05:20:44;99292.97;;;18.78;100.00
4745;BME280;2386;42.138;24.746;2023-05-21T05:23:09;99288.00;;;18.80;100.00
4745;BME280;2386;42.138;24.746;2023-05-21T05:25:34;99288.94;;;18.94;100.00
4745;BME280;2386;42.138;24.746;2023-05-21T05:28:00;99294.31;;;19.04;100.00
4745;BME280;2386;42.138;24.746;2023-05-21T05:30:25;99288.28;;;19.02;100.00
4745;BME280;2386;42.138;24.746;2023-05-21T05:32:51;99296.41;;;19.13;100.00
4745;BME280;2386;42.138;24.746;2023-05-21T05:35:16;99292.25;;;19.15;100.00
4745;BME280;2386;42.138;24.746;2023-05-21T05:37:41;99298.91;;;19.09;100.00
4745;BME280;2386;42.138;24.746;2023-05-21T05:40:07;99302.03;;;19.02;98.52
4745;BME280;2386;42.138;24.746;2023-05-21T05:42:32;99302.78;;;19.08;98.58
4745;BME280;2386;42.138;24.746;2023-05-21T05:44:58;99312.50;;;19.00;99.62
4745;BME280;2386;42.138;24.746;2023-05-21T05:47:23;99316.81;;;19.07;99.56
4745;BME280;2386;42.138;24.746;2023-05-21T05:49:48;99312.38;;;19.11;100.00
4745;BME280;2386;42.138;24.746;2023-05-21T05:52:14;99313.56;;;19.04;100.00
4745;BME280;2386;42.138;24.746;2023-05-21T05:54:39;99315.34;;;19.14;99.87
4745;BME280;2386;42.138;24.746;2023-05-21T05:57:05;99323.91;;;19.13;99.29
4745;BME280;2386;42.138;24.746;2023-05-21T05:59:30;99313.09;;;18.97;99.59
4745;BME280;2386;42.138;24.746;2023-05-21T06:01:58;99309.81;;;18.95;99.78
4745;BME280;2386;42.138;24.746;2023-05-21T06:04:23;99317.31;;;18.90;100.00
4745;BME280;2386;42.138;24.746;2023-05-21T06:06:49;99318.81;;;18.77;100.00
4745;BME280;2386;42.138;24.746;2023-05-21T06:09:15;99322.19;;;18.69;100.00
4745;BME280;2386;42.138;24.746;2023-05-21T06:11:40;99321.63;;;18.72;100.00
4745;BME280;2386;42.138;24.746;2023-05-21T06:14:05;99320.81;;;18.71;100.00
4745;BME280;2386;42.138;24.746;2023-05-21T06:16:31;99324.31;;;18.77;100.00
4745;BME280;2386;42.138;24.746;2023-05-21T06:18:56;99315.44;;;18.85;100.00
4745;BME280;2386;42.138;24.746;2023-05-21T06:21:21;99311.56;;;18.86;100.00
4745;BME280;2386;42.138;24.746;2023-05-21T06:23:47;99315.06;;;18.92;100.00
4745;BME280;2386;42.138;24.746;2023-05-21T06:26:12;99309.16;;;19.03;100.00
4745;BME280;2386;42.138;24.746;2023-05-21T06:28:38;99311.19;;;19.17;100.00
4745;BME280;2386;42.138;24.746;2023-05-21T06:31:03;99309.38;;;19.31;100.00
4745;BME280;2386;42.138;24.746;2023-05-21T06:33:28;99310.53;;;19.25;96.77
4745;BME280;2386;42.138;24.746;2023-05-21T06:35:54;99309.84;;;19.33;94.93
4745;BME280;2386;42.138;24.746;2023-05-21T06:38:19;99309.34;;;19.50;95.36
4745;BME280;2386;42.138;24.746;2023-05-21T06:40:45;99307.00;;;19.62;95.49
4745;BME280;2386;42.138;24.746;2023-05-21T06:43:12;99307.75;;;19.67;94.27
4745;BME280;2386;42.138;24.746;2023-05-21T06:45:38;99313.03;;;19.83;95.20
4745;BME280;2386;42.138;24.746;2023-05-21T06:48:03;99315.91;;;19.91;95.24
4745;BME280;2386;42.138;24.746;2023-05-21T06:50:29;99317.16;;;19.99;95.74
4745;BME280;2386;42.138;24.746;2023-05-21T06:52:54;99314.63;;;20.02;95.59
4745;BME280;2386;42.138;24.746;2023-05-21T06:55:20;99312.06;;;20.06;96.81
4745;BME280;2386;42.138;24.746;2023-05-21T06:57:45;99317.63;;;19.68;94.66
4745;BME280;2386;42.138;24.746;2023-05-21T07:00:11;99325.22;;;19.77;96.54
4745;BME280;2386;42.138;24.746;2023-05-21T07:02:37;99325.84;;;19.50;99.99
4745;BME280;2386;42.138;24.746;2023-05-21T07:05:02;99308.03;;;19.28;100.00
4745;BME280;2386;42.138;24.746;2023-05-21T07:07:27;99315.66;;;19.50;100.00
4745;BME280;2386;42.138;24.746;2023-05-21T07:09:53;99315.56;;;19.60;100.00
4745;BME280;2386;42.138;24.746;2023-05-21T07:12:18;99310.88;;;19.61;100.00
4745;BME280;2386;42.138;24.746;2023-05-21T07:14:43;99315.41;;;19.71;100.00
4745;BME280;2386;42.138;24.746;2023-05-21T07:17:09;99312.72;;;19.84;100.00
4745;BME280;2386;42.138;24.746;2023-05-21T07:19:34;99314.72;;;19.97;100.00
4745;BME280;2386;42.138;24.746;2023-05-21T07:22:01;99308.31;;;20.02;100.00
4745;BME280;2386;42.138;24.746;2023-05-21T07:24:26;99303.72;;;20.11;100.00
4745;BME280;2386;42.138;24.746;2023-05-21T07:26:52;99312.63;;;20.22;100.00
4745;BME280;2386;42.138;24.746;2023-05-21T07:29:17;99305.81;;;20.33;100.00
4745;BME280;2386;42.138;24.746;2023-05-21T07:31:42;99316.41;;;20.45;100.00
4745;BME280;2386;42.138;24.746;2023-05-21T07:34:08;99316.13;;;20.60;100.00
4745;BME280;2386;42.138;24.746;2023-05-21T07:36:33;99312.56;;;20.73;100.00
4745;BME280;2386;42.138;24.746;2023-05-21T07:38:58;99314.81;;;20.71;95.68
4745;BME280;2386;42.138;24.746;2023-05-21T07:41:25;99307.53;;;20.89;96.40
4745;BME280;2386;42.138;24.746;2023-05-21T07:43:50;99316.13;;;21.01;99.63
4745;BME280;2386;42.138;24.746;2023-05-21T07:46:15;99329.19;;;21.09;94.83
4745;BME280;2386;42.138;24.746;2023-05-21T07:48:41;99316.72;;;21.12;89.01
4745;BME280;2386;42.138;24.746;2023-05-21T07:51:08;99322.25;;;21.25;87.04
4745;BME280;2386;42.138;24.746;2023-05-21T07:53:33;99325.41;;;21.46;85.42
4745;BME280;2386;42.138;24.746;2023-05-21T07:55:59;99332.81;;;21.59;86.87
4745;BME280;2386;42.138;24.746;2023-05-21T07:58:25;99331.97;;;21.73;85.89
4745;BME280;2386;42.138;24.746;2023-05-21T08:00:50;99323.06;;;21.76;84.45
4745;BME280;2386;42.138;24.746;2023-05-21T08:03:16;99324.25;;;21.83;82.49
4745;BME280;2386;42.138;24.746;2023-05-21T08:05:46;99317.91;;;21.83;82.57
4745;BME280;2386;42.138;24.746;2023-05-21T08:08:15;99313.91;;;21.89;83.83
4745;BME280;2386;42.138;24.746;2023-05-21T08:10:41;99323.06;;;21.98;82.87
4745;BME280;2386;42.138;24.746;2023-05-21T08:13:06;99315.38;;;22.09;83.50
4745;BME280;2386;42.138;24.746;2023-05-21T08:15:32;99319.97;;;22.13;79.44
4745;BME280;2386;42.138;24.746;2023-05-21T08:17:57;99321.59;;;22.14;80.13
4745;BME280;2386;42.138;24.746;2023-05-21T08:20:22;99321.06;;;21.90;72.38
4745;BME280;2386;42.138;24.746;2023-05-21T08:22:48;99325.50;;;22.13;73.43
4745;BME280;2386;42.138;24.746;2023-05-21T08:25:14;99331.41;;;22.20;74.27
4745;BME280;2386;42.138;24.746;2023-05-21T08:27:39;99325.25;;;22.23;73.29
4745;BME280;2386;42.138;24.746;2023-05-21T08:30:05;99322.06;;;22.39;73.71
4745;BME280;2386;42.138;24.746;2023-05-21T08:32:31;99332.94;;;22.66;73.08
4745;BME280;2386;42.138;24.746;2023-05-21T08:34:56;99336.56;;;22.75;70.91
4745;BME280;2386;42.138;24.746;2023-05-21T08:37:22;99333.75;;;22.89;69.65
4745;BME280;2386;42.138;24.746;2023-05-21T08:39:47;99326.63;;;22.97;69.33
4745;BME280;2386;42.138;24.746;2023-05-21T08:42:42;99326.94;;;23.04;70.68
4745;BME280;2386;42.138;24.746;2023-05-21T08:45:13;99327.25;;;22.93;66.44
4745;BME280;2386;42.138;24.746;2023-05-21T08:47:42;99325.81;;;23.05;67.09
4745;BME280;2386;42.138;24.746;2023-05-21T08:50:10;99320.28;;;23.13;69.24
4745;BME280;2386;42.138;24.746;2023-05-21T08:52:36;99324.53;;;23.19;69.04
4745;BME280;2386;42.138;24.746;2023-05-21T08:55:02;99301.75;;;23.14;61.81
4745;BME280;2386;42.138;24.746;2023-05-21T08:57:29;99300.25;;;23.08;65.13
4745;BME280;2386;42.138;24.746;2023-05-21T08:59:55;99304.81;;;23.04;60.11
4745;BME280;2386;42.138;24.746;2023-05-21T09:02:20;99305.44;;;22.92;55.51
4745;BME280;2386;42.138;24.746;2023-05-21T09:04:46;99309.09;;;22.48;54.38
4745;BME280;2386;42.138;24.746;2023-05-21T09:07:14;99312.25;;;22.33;53.29
4745;BME280;2386;42.138;24.746;2023-05-21T09:09:56;99314.25;;;22.41;55.05
4745;BME280;2386;42.138;24.746;2023-05-21T09:12:26;99306.56;;;22.60;55.93
4745;BME280;2386;42.138;24.746;2023-05-21T09:14:51;99308.81;;;22.80;55.63
4745;BME280;2386;42.138;24.746;2023-05-21T09:17:17;99305.16;;;23.02;57.73
4745;BME280;2386;42.138;24.746;2023-05-21T09:20:03;99312.00;;;23.22;59.28
4745;BME280;2386;42.138;24.746;2023-05-21T09:22:48;99314.72;;;22.96;50.52
4745;BME280;2386;42.138;24.746;2023-05-21T09:25:15;99325.50;;;22.75;51.46
4745;BME280;2386;42.138;24.746;2023-05-21T09:27:41;99312.59;;;22.62;51.74
4745;BME280;2386;42.138;24.746;2023-05-21T09:30:11;99313.91;;;22.65;52.80
4745;BME280;2386;42.138;24.746;2023-05-21T09:32:38;99308.41;;;22.73;53.76
4745;BME280;2386;42.138;24.746;2023-05-21T09:35:11;99321.38;;;22.86;54.76
4745;BME280;2386;42.138;24.746;2023-05-21T09:37:41;99320.59;;;22.94;56.61
4745;BME280;2386;42.138;24.746;2023-05-21T09:40:16;99322.06;;;23.01;58.97
4745;BME280;2386;42.138;24.746;2023-05-21T09:42:45;99324.34;;;23.07;58.83
4745;BME280;2386;42.138;24.746;2023-05-21T09:45:11;99318.19;;;23.19;59.91
4745;BME280;2386;42.138;24.746;2023-05-21T09:47:43;99308.94;;;23.23;58.28
4745;BME280;2386;42.138;24.746;2023-05-21T09:50:11;99318.88;;;23.24;59.77
4745;BME280;2386;42.138;24.746;2023-05-21T09:52:37;99317.72;;;23.25;57.95
4745;BME280;2386;42.138;24.746;2023-05-21T09:55:09;99312.00;;;23.22;58.82
4745;BME280;2386;42.138;24.746;2023-05-21T09:57:43;99311.34;;;23.16;58.62
4745;BME280;2386;42.138;24.746;2023-05-21T10:00:19;99314.75;;;23.13;55.93
4745;BME280;2386;42.138;24.746;2023-05-21T10:02:46;99316.22;;;23.11;57.91
4745;BME280;2386;42.138;24.746;2023-05-21T10:05:16;99308.88;;;23.06;59.34
4745;BME280;2386;42.138;24.746;2023-05-21T10:07:47;99316.81;;;22.90;57.73
4745;BME280;2386;42.138;24.746;2023-05-21T10:10:13;99324.66;;;22.97;58.70
4745;BME280;2386;42.138;24.746;2023-05-21T10:12:43;99322.72;;;22.98;60.16
4745;BME280;2386;42.138;24.746;2023-05-21T10:15:13;99326.13;;;22.94;58.77
4745;BME280;2386;42.138;24.746;2023-05-21T10:17:40;99317.47;;;22.87;59.08
4745;BME280;2386;42.138;24.746;2023-05-21T10:20:07;99318.34;;;22.74;60.23
4745;BME280;2386;42.138;24.746;2023-05-21T10:22:35;99316.19;;;22.62;63.48
4745;BME280;2386;42.138;24.746;2023-05-21T10:25:01;99315.81;;;22.55;67.50
4745;BME280;2386;42.138;24.746;2023-05-21T10:27:28;99306.34;;;22.48;68.99
4745;BME280;2386;42.138;24.746;2023-05-21T10:29:56;99311.69;;;22.44;74.88
4745;BME280;2386;42.138;24.746;2023-05-21T10:32:21;99308.25;;;22.39;73.82
4745;BME280;2386;42.138;24.746;2023-05-21T10:34:48;99303.47;;;22.30;76.49
4745;BME280;2386;42.138;24.746;2023-05-21T10:37:15;99316.66;;;22.34;76.35
4745;BME280;2386;42.138;24.746;2023-05-21T10:39:42;99323.88;;;22.43;78.13
4745;BME280;2386;42.138;24.746;2023-05-21T11:01:14;99328.34;;;22.84;51.18
4745;BME280;2386;42.138;24.746;2023-05-21T11:03:44;99325.44;;;22.89;52.25
4745;BME280;2386;42.138;24.746;2023-05-21T11:06:10;99330.94;;;22.58;52.91
4745;BME280;2386;42.138;24.746;2023-05-21T11:08:35;99324.94;;;21.89;55.28
4745;BME280;2386;42.138;24.746;2023-05-21T11:11:03;99323.06;;;21.98;56.14
4745;BME280;2386;42.138;24.746;2023-05-21T11:13:44;99322.44;;;22.01;57.22
4745;BME280;2386;42.138;24.746;2023-05-21T11:16:16;99313.59;;;21.90;59.04
4745;BME280;2386;42.138;24.746;2023-05-21T11:21:15;99311.00;;;21.94;60.74
4745;BME280;2386;42.138;24.746;2023-05-21T11:23:53;99312.34;;;21.60;59.75
4745;BME280;2386;42.138;24.746;2023-05-21T11:26:23;99305.88;;;21.43;61.57
4745;BME280;2386;42.138;24.746;2023-05-21T11:28:50;99303.81;;;21.48;62.80
4745;BME280;2386;42.138;24.746;2023-05-21T11:31:31;99294.00;;;21.78;62.60
4745;BME280;2386;42.138;24.746;2023-05-21T11:36:44;99301.78;;;21.54;60.11
4745;BME280;2386;42.138;24.746;2023-05-21T11:39:11;99305.28;;;21.68;61.08
4745;BME280;2386;42.138;24.746;2023-05-21T11:41:53;99301.75;;;22.12;60.42
4745;BME280;2386;42.138;24.746;2023-05-21T11:44:40;99295.28;;;22.48;62.03
4745;BME280;2386;42.138;24.746;2023-05-21T11:47:07;99296.78;;;22.23;57.19
4745;BME280;2386;42.138;24.746;2023-05-21T11:49:34;99292.09;;;22.23;57.26
4745;BME280;2386;42.138;24.746;2023-05-21T11:52:00;99297.72;;;21.96;58.63
4745;BME280;2386;42.138;24.746;2023-05-21T11:54:26;99296.03;;;22.09;58.60
4745;BME280;2386;42.138;24.746;2023-05-21T11:56:53;99298.25;;;22.20;60.44
4745;BME280;2386;42.138;24.746;2023-05-21T11:59:19;99290.31;;;22.27;62.48
4745;BME280;2386;42.138;24.746;2023-05-21T12:01:44;99278.59;;;22.30;63.70
4745;BME280;2386;42.138;24.746;2023-05-21T12:04:10;99276.34;;;22.33;64.58
4745;BME280;2386;42.138;24.746;2023-05-21T12:06:37;99277.25;;;22.19;62.47
4745;BME280;2386;42.138;24.746;2023-05-21T12:09:03;99272.13;;;22.35;63.36
4745;BME280;2386;42.138;24.746;2023-05-21T12:11:29;99278.09;;;22.28;58.97
4745;BME280;2386;42.138;24.746;2023-05-21T12:13:55;99277.16;;;22.33;63.30
4745;BME280;2386;42.138;24.746;2023-05-21T12:16:21;99271.28;;;22.26;63.00
4745;BME280;2386;42.138;24.746;2023-05-21T12:18:47;99270.31;;;22.30;66.23
4745;BME280;2386;42.138;24.746;2023-05-21T12:21:12;99267.59;;;22.08;62.70
4745;BME280;2386;42.138;24.746;2023-05-21T12:23:38;99269.75;;;22.11;64.87
4745;BME280;2386;42.138;24.746;2023-05-21T12:26:03;99268.28;;;22.14;66.93
4745;BME280;2386;42.138;24.746;2023-05-21T12:28:29;99265.34;;;22.10;67.90
4745;BME280;2386;42.138;24.746;2023-05-21T12:30:55;99268.41;;;22.09;69.00
4745;BME280;2386;42.138;24.746;2023-05-21T12:33:21;99260.44;;;22.07;70.33
4745;BME280;2386;42.138;24.746;2023-05-21T12:35:50;99267.09;;;22.06;70.92
4745;BME280;2386;42.138;24.746;2023-05-21T12:38:16;99264.34;;;22.06;74.21
4745;BME280;2386;42.138;24.746;2023-05-21T12:40:41;99268.88;;;22.02;75.96
4745;BME280;2386;42.138;24.746;2023-05-21T12:43:09;99260.03;;;22.00;75.28
4745;BME280;2386;42.138;24.746;2023-05-21T12:45:36;99265.47;;;22.05;77.41
4745;BME280;2386;42.138;24.746;2023-05-21T12:48:03;99268.09;;;21.88;65.23
4745;BME280;2386;42.138;24.746;2023-05-21T12:50:29;99257.50;;;22.04;69.77
4745;BME280;2386;42.138;24.746;2023-05-21T12:52:57;99250.03;;;22.04;71.14
4745;BME280;2386;42.138;24.746;2023-05-21T12:55:24;99263.44;;;22.19;72.71
4745;BME280;2386;42.138;24.746;2023-05-21T12:58:02;99262.69;;;22.36;67.81
4745;BME280;2386;42.138;24.746;2023-05-21T13:00:30;99258.22;;;22.49;59.94
4745;BME280;2386;42.138;24.746;2023-05-21T13:02:56;99257.50;;;22.74;67.57
4745;BME280;2386;42.138;24.746;2023-05-21T13:05:24;99250.25;;;22.87;67.31
4745;BME280;2386;42.138;24.746;2023-05-21T13:07:49;99253.72;;;23.10;56.28
4745;BME280;2386;42.138;24.746;2023-05-21T13:10:16;99268.06;;;23.29;58.39
4745;BME280;2386;42.138;24.746;2023-05-21T13:12:41;99252.78;;;23.40;57.97
4745;BME280;2386;42.138;24.746;2023-05-21T13:15:07;99264.84;;;23.44;58.39
4745;BME280;2386;42.138;24.746;2023-05-21T13:17:33;99270.38;;;23.44;52.37
4745;BME280;2386;42.138;24.746;2023-05-21T13:20:14;99256.72;;;23.56;50.99
4745;BME280;2386;42.138;24.746;2023-05-21T13:22:42;99258.38;;;23.66;54.54
4745;BME280;2386;42.138;24.746;2023-05-21T13:25:12;99256.56;;;23.70;55.86
4745;BME280;2386;42.138;24.746;2023-05-21T13:27:41;99251.19;;;23.74;59.44